Historyczne dane pomiarowe

Dodano dane terminowe – wersja testowa.

Dane z okresu 1951-2019

Wersja bazy: 1.34 [2019-03-16, lista zmian], aktualizacja planowana na 2019-04-15

Dane meteo z obszaru Polski uzyskane na podstawie danych udostępnionych przez Instytut Meteorologii i Gospodarki Wodnej – Państwowy Instytut Badawczy.

 

Wybierz Datę:    

       

TemperaturaWilgotnośćWiatrCiśnienieOpadyŚniegCzas trwania zjawisk
 Stacja t tx tn tng RH VA  wxwx mslp ppp RRR   cm mm wxwxwxwxwxwxwx
1983-08-14 11.6 13.2 7.9- 75.3- 4.0 1.3---- 0.0------------
1983-08-13 12.9 19.9 9.9- 82.5- 7.7 2.3---- 3.0------------
1983-08-12 15.9 23.1 9.8- 78.0- 4.7 0.7---- 0.0------------
1983-08-11 15.5 22.9 8.9- 84.3- 6.3 1.7---- 0.2------------
1983-08-10 15.9 21.9 8.4- 78.3- 1.7 1.0---- 0.0------------
1983-08-09 16.0 22.9 9.9- 85.0- 6.0 1.0---- 0.0------------
1983-08-08 15.4 19.9 12.0- 86.0- 7.0 1.7---- 0.5------------
1983-08-07 13.1 15.5 11.2- 93.3- 8.0 1.0---- 8.8------------
1983-08-06 12.2 17.1 8.3- 80.0- 7.0 1.7---- 2.0------------
1983-08-05 10.8 14.5 8.3- 80.5- 8.0 2.0---- 0.0------------
1983-08-04 10.4 15.9 9.5- 89.5- 8.0 1.3---- 0.9------------
1983-08-03 17.7 22.1 15.8- 84.8- 5.3 1.7---- 3.3------------
1983-08-02 17.0 26.6 9.4- 84.5- 6.7 1.7---- 10.7------------
1983-08-01 16.5 27.6 4.6- 72.0- 2.3 0.7---- 0.0------------
1983-07-31 15.5 23.1 5.0- 73.5- 1.3 0.0---- 0.0------------
1983-07-30 15.5 19.8 12.6- 85.5- 6.3 3.3---- 0.0------------
1983-07-29 16.3 22.1 8.9- 79.5- 6.3 0.7---- 0.0------------
1983-07-28 19.3 26.2 13.3- 75.0- 6.7 1.7---- 0.0------------
1983-07-27 18.3 29.5 7.0- 73.8- 2.0 0.3---- 0.0------------
1983-07-26 17.4 24.1 8.3- 73.0- 2.3 0.7---- 0.0------------
1983-07-25 15.2 18.8 10.5- 76.0- 1.7 2.0---- 0.0------------
1983-07-24 14.5 21.1 6.4- 82.3- 2.7 1.0---- 0.2------------
1983-07-23 14.7 18.9 11.2- 79.8- 5.0 2.3---- 0.0------------
1983-07-22 9.4 13.4 3.3- 86.8- 8.0 3.0---- 8.0------------
1983-07-21 10.1 14.1 6.0- 73.8- 5.0 2.7---- 0.2------------
1983-07-20 16.1 22.6 11.6- 81.0- 6.7 1.7---- 1.3------------
1983-07-19 19.8 27.6 10.4- 73.8- 1.0 1.7---- 0.0------------
1983-07-18 18.7 28.7 8.4- 76.5- 0.3 0.3---- 0.1------------
1983-07-17 19.4 24.6 10.9- 73.8- 2.3 0.3---- 0.0------------
1983-07-16 17.2 25.1 7.8- 72.8- 1.3 1.7---- 0.0------------
1983-07-15 18.0 21.6 9.9- 77.8- 2.0 1.0---- 0.0------------
1983-07-14 14.3 20.3 12.1- 96.8- 8.0 0.3---- 38.1------------
1983-07-13 17.0 22.1 11.4- 76.8- 6.3 1.7---- 9.4------------
1983-07-12 15.1 20.3 11.1- 89.0- 7.3 0.7---- 5.8------------
1983-07-11 14.5 22.8 9.3- 87.8- 6.0 0.3---- 7.3------------
1983-07-10 18.3 25.3 8.9- 72.0- 1.0 1.0---- 0.0------------
1983-07-09 16.1 24.1 4.0- 72.5- 1.0 1.7---- 0.0------------
1983-07-08 17.1 23.8 6.8- 68.0- 0.0 1.0---- 0.0------------
1983-07-07 18.2 25.9 9.3- 69.5- 2.3 1.3---- 0.0------------
1983-07-06 18.2 26.2 8.3- 68.3- 0.7 0.3---- 0.0------------
1983-07-05 15.8 24.1 5.2- 71.0- 3.3 1.3---- 0.0------------
1983-07-04 15.4 22.9 6.0- 73.8- 2.3 0.7---- 0.0------------
1983-07-03 16.6 21.2 8.4- 67.8- 2.0 2.7---- 0.0------------
1983-07-02 15.9 19.2 11.1- 78.0- 7.3 1.7---- 0.0------------
1983-07-01 15.8 23.8 4.9- 68.3- 3.3 1.3---- 0.0------------
1983-06-30 12.8 22.3 1.9- 67.5- 3.7 1.7---- 0.0------------
1983-06-29 12.5 16.5 8.8- 60.0- 6.7 2.3---- 0.0------------
1983-06-28 14.0 17.6 10.9- 90.3- 8.0 0.7---- 2.0------------
1983-06-27 16.1 24.3 9.1- 77.3- 6.7 2.3---- 8.9------------
1983-06-26 16.6 22.8 10.0- 80.3- 7.3 1.3---- 0.0------------
1983-06-25 16.1 24.1 5.5- 60.3- 0.0 3.3---- 0.0------------
1983-06-24 14.2 23.6 2.1- 61.8- 0.0 1.3---- 0.0------------
1983-06-23 11.8 19.6 0.2- 61.3- 0.0 1.0---- 0.0------------
1983-06-22 14.3 18.4 9.3- 62.0- 2.7 3.3---- 0.0------------
1983-06-21 16.3 22.2 11.1- 73.5- 4.0 1.3---- 0.0------------
1983-06-20 15.2 17.0 12.9- 92.8- 7.7 3.3---- 4.6------------
1983-06-19 12.4 15.0 9.6- 93.5- 8.0 3.0---- 33.0------------
1983-06-18 9.8 13.0 7.7- 90.8- 8.0 1.0---- 9.6------------
1983-06-17 8.9 10.4 7.9- 82.8- 8.0 2.3---- 5.2------------
1983-06-16 8.2 11.8 7.1- 94.0- 8.0 1.0---- 7.8------------
344.0 ms

 

Źródłem pochodzenia danych jest Instytut Meteorologii i Gospodarki Wodnej – Państwowy Instytut Badawczy. Dane Instytutu Meteorologii i Gospodarki Wodnej – Państwowego Instytutu Badawczego zostały przetworzone.

Dane źródłowe można odnaleźć na stronie https://dane.imgw.pl